Time,TemperatureF,DewpointF,PressureIn,WindDirection,WindDirectionDegrees,WindSpeedMPH,WindSpeedGustMPH,Humidity,HourlyPrecipIn,Conditions,Clouds,dailyrainin,SolarRadiationWatts/m^2,SoftwareType,DateUTC
2013-01-29 00:04:00,49.0,42.0,30.55,NNE,20,2.0,3.0,76,0.00,,,0.01,0.000000,,2013-01-29 05:04:00,
2013-01-29 00:32:00,48.0,41.0,30.55,South,174,1.0,2.0,78,0.00,,,0.01,0.000000,,2013-01-29 05:32:00,
2013-01-29 00:43:00,48.0,41.0,30.55,South,174,1.0,2.0,78,0.00,,,0.01,0.000000,,2013-01-29 05:43:00,
2013-01-29 00:52:00,48.0,41.0,30.55,South,174,1.0,2.0,78,0.00,,,0.01,0.000000,,2013-01-29 05:52:00,
2013-01-29 01:02:00,48.0,41.0,30.55,South,174,1.0,2.0,78,0.00,,,0.01,0.000000,,2013-01-29 06:02:00,
2013-01-29 01:32:00,47.0,42.0,30.54,North,359,1.0,2.0,82,0.00,,,0.01,0.000000,,2013-01-29 06:32:00,
2013-01-29 01:42:00,47.0,42.0,30.54,North,359,1.0,2.0,82,0.00,,,0.01,0.000000,,2013-01-29 06:42:00,
2013-01-29 01:52:00,47.0,42.0,30.54,North,359,1.0,2.0,82,0.00,,,0.01,0.000000,,2013-01-29 06:52:00,
2013-01-29 02:02:00,47.0,42.0,30.54,North,359,1.0,2.0,82,0.00,,,0.01,0.000000,,2013-01-29 07:02:00,
2013-01-29 02:32:00,45.0,42.0,30.54,NNE,16,2.0,3.0,89,0.00,,,0.01,0.000000,,2013-01-29 07:32:00,
2013-01-29 02:42:00,45.0,42.0,30.54,NNE,16,2.0,3.0,89,0.00,,,0.01,0.000000,,2013-01-29 07:42:00,
2013-01-29 02:52:00,45.0,42.0,30.54,NNE,16,2.0,3.0,89,0.00,,,0.01,0.000000,,2013-01-29 07:52:00,
2013-01-29 03:02:00,45.0,42.0,30.54,NNE,16,2.0,3.0,89,0.00,,,0.01,0.000000,,2013-01-29 08:02:00,
2013-01-29 03:32:00,43.0,41.0,30.54,West,262,1.0,4.0,91,0.00,,,0.01,0.000000,,2013-01-29 08:32:00,
2013-01-29 03:42:00,43.0,41.0,30.54,West,262,1.0,4.0,91,0.00,,,0.01,0.000000,,2013-01-29 08:42:00,
2013-01-29 03:52:00,43.0,41.0,30.54,West,262,1.0,4.0,91,0.00,,,0.01,0.000000,,2013-01-29 08:52:00,
2013-01-29 04:02:00,43.0,41.0,30.54,West,262,1.0,4.0,91,0.00,,,0.01,0.000000,,2013-01-29 09:02:00,
2013-01-29 04:32:00,44.0,42.0,30.53,SE,129,1.0,5.0,93,0.00,,,0.01,0.000000,,2013-01-29 09:32:00,
2013-01-29 04:42:00,44.0,42.0,30.53,SE,129,1.0,5.0,93,0.00,,,0.01,0.000000,,2013-01-29 09:42:00,
2013-01-29 04:52:00,44.0,42.0,30.53,SE,129,1.0,5.0,93,0.00,,,0.01,0.000000,,2013-01-29 09:52:00,
2013-01-29 05:02:00,44.0,42.0,30.53,SE,129,1.0,5.0,93,0.00,,,0.01,0.000000,,2013-01-29 10:02:00,
2013-01-29 05:32:00,42.0,40.0,30.53,WNW,295,1.0,5.0,94,0.00,,,0.00,0.000000,,2013-01-29 10:32:00,
2013-01-29 05:42:00,42.0,40.0,30.53,WNW,295,1.0,5.0,94,0.00,,,0.00,0.000000,,2013-01-29 10:42:00,
2013-01-29 05:52:00,42.0,40.0,30.53,WNW,295,1.0,5.0,94,0.00,,,0.00,0.000000,,2013-01-29 10:52:00,
2013-01-29 06:02:00,42.0,40.0,30.53,WNW,295,1.0,5.0,94,0.00,,,0.00,0.000000,,2013-01-29 11:02:00,
2013-01-29 06:32:00,44.0,43.0,30.53,WSW,247,1.0,4.0,96,0.00,,,0.00,0.000000,,2013-01-29 11:32:00,
2013-01-29 06:42:00,44.0,43.0,30.53,WSW,247,1.0,4.0,96,0.00,,,0.00,0.000000,,2013-01-29 11:42:00,
2013-01-29 06:53:00,44.0,43.0,30.53,WSW,247,1.0,4.0,96,0.00,,,0.00,0.000000,,2013-01-29 11:53:00,
2013-01-29 07:03:00,44.0,43.0,30.53,WSW,247,1.0,4.0,96,0.00,,,0.00,0.000000,,2013-01-29 12:03:00,
2013-01-29 07:33:00,40.0,39.0,30.53,SW,234,1.0,2.0,96,0.00,,,0.00,0.000000,,2013-01-29 12:33:00,
2013-01-29 07:43:00,40.0,39.0,30.53,SW,234,1.0,2.0,96,0.00,,,0.00,0.000000,,2013-01-29 12:43:00,
2013-01-29 07:53:00,40.0,39.0,30.53,SW,234,1.0,2.0,96,0.00,,,0.00,0.000000,,2013-01-29 12:53:00,
2013-01-29 08:02:00,40.0,39.0,30.53,SW,234,1.0,2.0,96,0.00,,,0.00,0.000000,,2013-01-29 13:02:00,
2013-01-29 08:32:00,41.0,40.0,30.52,SSE,149,1.0,4.0,97,0.00,,,0.00,7.000000,,2013-01-29 13:32:00,
2013-01-29 08:43:00,41.0,40.0,30.52,SSE,149,1.0,4.0,97,0.00,,,0.00,7.000000,,2013-01-29 13:43:00,
2013-01-29 08:53:00,41.0,40.0,30.52,SSE,149,1.0,4.0,97,0.00,,,0.00,7.000000,,2013-01-29 13:53:00,
2013-01-29 09:02:00,41.0,40.0,30.52,SSE,149,1.0,4.0,97,0.00,,,0.00,7.000000,,2013-01-29 14:02:00,
2013-01-29 09:33:00,49.0,45.0,30.53,ESE,111,2.0,4.0,85,0.00,,,0.00,110.000000,,2013-01-29 14:33:00,
2013-01-29 09:43:00,49.0,45.0,30.53,ESE,111,2.0,4.0,85,0.00,,,0.00,110.000000,,2013-01-29 14:43:00,
2013-01-29 09:53:00,49.0,45.0,30.53,ESE,111,2.0,4.0,85,0.00,,,0.00,110.000000,,2013-01-29 14:53:00,
2013-01-29 10:03:00,49.0,45.0,30.53,ESE,111,2.0,4.0,85,0.00,,,0.00,110.000000,,2013-01-29 15:03:00,
2013-01-29 10:33:00,57.0,44.0,30.52,East,91,1.0,4.0,61,0.00,,,-99.99,237.000000,,2013-01-29 15:33:00,
2013-01-29 10:43:00,57.0,44.0,30.52,East,91,1.0,4.0,61,0.00,,,-99.99,237.000000,,2013-01-29 15:43:00,
2013-01-29 10:53:00,57.0,44.0,30.52,East,91,1.0,4.0,61,0.00,,,-99.99,237.000000,,2013-01-29 15:53:00,
2013-01-29 11:03:00,57.0,44.0,30.52,East,91,1.0,4.0,61,0.00,,,-99.99,237.000000,,2013-01-29 16:03:00,
2013-01-29 11:33:00,61.0,43.0,30.50,NNW,336,2.0,8.0,51,0.00,,,0.00,353.000000,,2013-01-29 16:33:00,
2013-01-29 11:43:00,61.0,43.0,30.50,NNW,336,2.0,8.0,51,0.00,,,0.00,353.000000,,2013-01-29 16:43:00,
2013-01-29 11:53:00,61.0,43.0,30.50,NNW,336,2.0,8.0,51,0.00,,,0.00,353.000000,,2013-01-29 16:53:00,
2013-01-29 12:03:00,61.0,43.0,30.50,NNW,336,2.0,8.0,51,0.00,,,0.00,353.000000,,2013-01-29 17:03:00,
2013-01-29 12:33:00,70.0,45.0,30.48,SSE,152,3.0,8.0,41,0.00,,,0.00,526.000000,,2013-01-29 17:33:00,
2013-01-29 12:42:00,70.0,45.0,30.48,SSE,152,3.0,8.0,41,0.00,,,0.00,526.000000,,2013-01-29 17:42:00,
2013-01-29 12:53:00,70.0,45.0,30.48,SSE,152,3.0,8.0,41,0.00,,,0.00,526.000000,,2013-01-29 17:53:00,
2013-01-29 13:04:00,70.0,45.0,30.48,SSE,152,3.0,8.0,41,0.00,,,0.00,526.000000,,2013-01-29 18:04:00,
2013-01-29 13:33:00,74.0,45.0,30.43,East,83,3.0,9.0,36,0.00,,,0.00,556.000000,,2013-01-29 18:33:00,
2013-01-29 13:42:00,74.0,45.0,30.43,East,83,3.0,9.0,36,0.00,,,0.00,556.000000,,2013-01-29 18:42:00,
2013-01-29 13:52:00,74.0,45.0,30.43,East,83,3.0,9.0,36,0.00,,,0.00,556.000000,,2013-01-29 18:52:00,
2013-01-29 14:03:00,74.0,45.0,30.43,East,83,3.0,9.0,36,0.00,,,0.00,556.000000,,2013-01-29 19:03:00,
2013-01-29 14:33:00,75.0,45.0,30.40,WSW,246,3.0,12.0,34,0.00,,,0.00,522.000000,,2013-01-29 19:33:00,
2013-01-29 14:42:00,75.0,45.0,30.40,WSW,246,3.0,12.0,34,0.00,,,0.00,522.000000,,2013-01-29 19:42:00,
2013-01-29 14:52:00,75.0,45.0,30.40,WSW,246,3.0,12.0,34,0.00,,,0.00,522.000000,,2013-01-29 19:52:00,
2013-01-29 15:03:00,75.0,45.0,30.40,WSW,246,3.0,12.0,34,0.00,,,0.00,522.000000,,2013-01-29 20:03:00,
2013-01-29 15:33:00,77.0,46.0,30.38,SSW,194,10.0,26.0,34,0.00,,,0.00,346.000000,,2013-01-29 20:33:00,
2013-01-29 15:43:00,77.0,46.0,30.38,SSW,194,10.0,26.0,34,0.00,,,0.00,346.000000,,2013-01-29 20:43:00,
2013-01-29 15:53:00,77.0,46.0,30.38,SSW,194,10.0,26.0,34,0.00,,,0.00,346.000000,,2013-01-29 20:53:00,
2013-01-29 16:03:00,77.0,46.0,30.38,SSW,194,10.0,26.0,34,0.00,,,0.00,346.000000,,2013-01-29 21:03:00,
2013-01-29 16:34:00,71.0,47.0,30.37,SSW,200,6.0,19.0,42,0.00,,,0.00,131.000000,,2013-01-29 21:34:00,
2013-01-29 16:42:00,71.0,47.0,30.37,SSW,200,6.0,19.0,42,0.00,,,0.00,131.000000,,2013-01-29 21:42:00,
2013-01-29 16:53:00,71.0,47.0,30.37,SSW,200,6.0,19.0,42,0.00,,,0.00,131.000000,,2013-01-29 21:53:00,
2013-01-29 17:03:00,71.0,47.0,30.37,SSW,200,6.0,19.0,42,0.00,,,0.00,131.000000,,2013-01-29 22:03:00,
2013-01-29 17:33:00,65.0,50.0,30.36,SE,127,6.0,18.0,58,0.00,,,0.00,47.000000,,2013-01-29 22:33:00,
2013-01-29 17:43:00,65.0,50.0,30.36,SE,127,6.0,18.0,58,0.00,,,0.00,47.000000,,2013-01-29 22:43:00,
2013-01-29 17:53:00,65.0,50.0,30.36,SE,127,6.0,18.0,58,0.00,,,0.00,47.000000,,2013-01-29 22:53:00,
2013-01-29 18:02:00,65.0,50.0,30.36,SE,127,6.0,18.0,58,0.00,,,0.00,47.000000,,2013-01-29 23:02:00,
2013-01-29 18:33:00,64.0,52.0,30.35,SE,133,7.0,16.0,65,0.00,,,0.00,20.000000,,2013-01-29 23:33:00,
2013-01-29 18:42:00,64.0,52.0,30.35,SE,133,7.0,16.0,65,0.00,,,0.00,20.000000,,2013-01-29 23:42:00,
2013-01-29 18:53:00,64.0,52.0,30.35,SE,133,7.0,16.0,65,0.00,,,0.00,20.000000,,2013-01-29 23:53:00,
2013-01-29 19:03:00,64.0,52.0,30.35,SE,133,7.0,16.0,65,0.00,,,0.00,20.000000,,2013-01-30 00:03:00,
2013-01-29 19:33:00,61.0,52.0,30.35,SE,132,8.0,16.0,71,0.00,,,0.00,0.000000,,2013-01-30 00:33:00,
2013-01-29 19:43:00,61.0,52.0,30.35,SE,132,8.0,16.0,71,0.00,,,0.00,0.000000,,2013-01-30 00:43:00,
2013-01-29 19:53:00,61.0,52.0,30.35,SE,132,8.0,16.0,71,0.00,,,0.00,0.000000,,2013-01-30 00:53:00,
2013-01-29 20:02:00,61.0,52.0,30.35,SE,132,8.0,16.0,71,0.00,,,0.00,0.000000,,2013-01-30 01:02:00,
2013-01-29 20:32:00,61.0,52.0,30.37,NE,50,5.0,20.0,73,0.00,,,0.00,0.000000,,2013-01-30 01:32:00,
2013-01-29 20:43:00,61.0,52.0,30.37,NE,50,5.0,20.0,73,0.00,,,0.00,0.000000,,2013-01-30 01:43:00,
2013-01-29 20:52:00,61.0,52.0,30.37,NE,50,5.0,20.0,73,0.00,,,0.00,0.000000,,2013-01-30 01:52:00,
2013-01-29 21:02:00,61.0,52.0,30.37,NE,50,5.0,20.0,73,0.00,,,0.00,0.000000,,2013-01-30 02:02:00,
2013-01-29 21:33:00,59.0,51.0,30.37,SE,128,6.0,14.0,76,0.00,,,0.00,0.000000,,2013-01-30 02:33:00,
2013-01-29 21:42:00,59.0,51.0,30.37,SE,128,6.0,14.0,76,0.00,,,0.00,0.000000,,2013-01-30 02:42:00,
2013-01-29 21:53:00,59.0,51.0,30.37,SE,128,6.0,14.0,76,0.00,,,0.00,0.000000,,2013-01-30 02:53:00,
2013-01-29 22:03:00,59.0,51.0,30.37,SE,128,6.0,14.0,76,0.00,,,0.00,0.000000,,2013-01-30 03:03:00,
2013-01-29 22:32:00,58.0,52.0,30.34,ESE,117,4.0,14.0,80,0.00,,,0.00,0.000000,,2013-01-30 03:32:00,
2013-01-29 22:42:00,58.0,52.0,30.34,ESE,117,4.0,14.0,80,0.00,,,0.00,0.000000,,2013-01-30 03:42:00,
2013-01-29 22:52:00,58.0,52.0,30.34,ESE,117,4.0,14.0,80,0.00,,,0.00,0.000000,,2013-01-30 03:52:00,
2013-01-29 23:02:00,58.0,52.0,30.34,ESE,117,4.0,14.0,80,0.00,,,0.00,0.000000,,2013-01-30 04:02:00,
2013-01-29 23:32:00,60.0,53.0,30.32,SE,125,9.0,20.0,79,0.00,,,0.00,0.000000,,2013-01-30 04:32:00,
2013-01-29 23:42:00,60.0,53.0,30.32,SE,125,9.0,20.0,79,0.00,,,0.00,0.000000,,2013-01-30 04:42:00,
2013-01-29 23:52:00,60.0,53.0,30.32,SE,125,9.0,20.0,79,0.00,,,0.00,0.000000,,2013-01-30 04:52:00,